sensor_id;sensor_type;location;lat;lon;timestamp;P1;durP1;ratioP1;P2;durP2;ratioP2
21943;SDS011;11136;48.778;9.126;2023-11-19T00:01:25;1.35;;;1.25;;
21943;SDS011;11136;48.778;9.126;2023-11-19T00:03:50;2.20;;;1.00;;
21943;SDS011;11136;48.778;9.126;2023-11-19T00:06:15;1.85;;;1.23;;
21943;SDS011;11136;48.778;9.126;2023-11-19T00:08:42;2.20;;;1.17;;
21943;SDS011;11136;48.778;9.126;2023-11-19T00:11:08;1.25;;;0.90;;
21943;SDS011;11136;48.778;9.126;2023-11-19T00:13:34;1.55;;;1.13;;
21943;SDS011;11136;48.778;9.126;2023-11-19T00:15:59;1.60;;;1.10;;
21943;SDS011;11136;48.778;9.126;2023-11-19T00:18:25;1.33;;;1.00;;
21943;SDS011;11136;48.778;9.126;2023-11-19T00:20:50;0.90;;;0.90;;
21943;SDS011;11136;48.778;9.126;2023-11-19T00:23:15;1.80;;;1.00;;
21943;SDS011;11136;48.778;9.126;2023-11-19T00:25:41;0.85;;;0.80;;
21943;SDS011;11136;48.778;9.126;2023-11-19T00:28:06;1.95;;;1.05;;
21943;SDS011;11136;48.778;9.126;2023-11-19T00:30:31;0.70;;;0.70;;
21943;SDS011;11136;48.778;9.126;2023-11-19T00:32:56;2.10;;;1.20;;
21943;SDS011;11136;48.778;9.126;2023-11-19T00:35:22;0.88;;;0.60;;
21943;SDS011;11136;48.778;9.126;2023-11-19T00:37:47;1.08;;;0.98;;
21943;SDS011;11136;48.778;9.126;2023-11-19T00:40:13;6.45;;;0.88;;
21943;SDS011;11136;48.778;9.126;2023-11-19T00:42:40;2.17;;;0.80;;
21943;SDS011;11136;48.778;9.126;2023-11-19T00:45:06;1.23;;;0.63;;
21943;SDS011;11136;48.778;9.126;2023-11-19T00:47:34;4.00;;;1.20;;
21943;SDS011;11136;48.778;9.126;2023-11-19T00:50:00;0.93;;;0.80;;
21943;SDS011;11136;48.778;9.126;2023-11-19T00:52:26;2.22;;;1.02;;
21943;SDS011;11136;48.778;9.126;2023-11-19T00:54:51;1.42;;;0.73;;
21943;SDS011;11136;48.778;9.126;2023-11-19T00:57:16;1.08;;;0.73;;
21943;SDS011;11136;48.778;9.126;2023-11-19T00:59:42;3.17;;;1.25;;
21943;SDS011;11136;48.778;9.126;2023-11-19T01:02:08;1.92;;;1.00;;
21943;SDS011;11136;48.778;9.126;2023-11-19T01:04:34;1.40;;;1.10;;
21943;SDS011;11136;48.778;9.126;2023-11-19T01:07:01;1.58;;;0.82;;
21943;SDS011;11136;48.778;9.126;2023-11-19T01:09:29;0.88;;;0.88;;
21943;SDS011;11136;48.778;9.126;2023-11-19T01:11:54;2.72;;;0.50;;
21943;SDS011;11136;48.778;9.126;2023-11-19T01:14:20;0.60;;;0.60;;
21943;SDS011;11136;48.778;9.126;2023-11-19T01:16:45;3.00;;;0.57;;
21943;SDS011;11136;48.778;9.126;2023-11-19T01:19:11;1.55;;;0.90;;
21943;SDS011;11136;48.778;9.126;2023-11-19T01:21:36;0.55;;;0.52;;
21943;SDS011;11136;48.778;9.126;2023-11-19T01:24:01;0.47;;;0.40;;
21943;SDS011;11136;48.778;9.126;2023-11-19T01:26:29;2.85;;;0.50;;
21943;SDS011;11136;48.778;9.126;2023-11-19T01:28:54;1.05;;;0.60;;
21943;SDS011;11136;48.778;9.126;2023-11-19T01:31:19;0.40;;;0.40;;
21943;SDS011;11136;48.778;9.126;2023-11-19T01:33:44;0.70;;;0.52;;
21943;SDS011;11136;48.778;9.126;2023-11-19T01:36:14;0.52;;;0.50;;
21943;SDS011;11136;48.778;9.126;2023-11-19T01:38:39;0.40;;;0.40;;
21943;SDS011;11136;48.778;9.126;2023-11-19T01:41:05;0.45;;;0.40;;
21943;SDS011;11136;48.778;9.126;2023-11-19T01:43:37;0.47;;;0.47;;
21943;SDS011;11136;48.778;9.126;2023-11-19T01:46:08;1.17;;;0.40;;
21943;SDS011;11136;48.778;9.126;2023-11-19T01:48:39;2.45;;;0.65;;
21943;SDS011;11136;48.778;9.126;2023-11-19T01:51:07;0.47;;;0.35;;
21943;SDS011;11136;48.778;9.126;2023-11-19T01:53:34;0.70;;;0.40;;
21943;SDS011;11136;48.778;9.126;2023-11-19T01:56:03;0.28;;;0.28;;
21943;SDS011;11136;48.778;9.126;2023-11-19T01:58:29;0.43;;;0.43;;
21943;SDS011;11136;48.778;9.126;2023-11-19T02:00:56;0.70;;;0.60;;
21943;SDS011;11136;48.778;9.126;2023-11-19T02:03:22;0.47;;;0.47;;
21943;SDS011;11136;48.778;9.126;2023-11-19T02:05:48;0.32;;;0.25;;
21943;SDS011;11136;48.778;9.126;2023-11-19T02:08:14;0.65;;;0.30;;
21943;SDS011;11136;48.778;9.126;2023-11-19T02:10:39;0.30;;;0.30;;
21943;SDS011;11136;48.778;9.126;2023-11-19T02:13:05;0.30;;;0.30;;
21943;SDS011;11136;48.778;9.126;2023-11-19T02:15:31;0.38;;;0.28;;
21943;SDS011;11136;48.778;9.126;2023-11-19T02:17:57;0.35;;;0.35;;
21943;SDS011;11136;48.778;9.126;2023-11-19T02:20:42;0.13;;;0.13;;
21943;SDS011;11136;48.778;9.126;2023-11-19T02:23:08;0.30;;;0.20;;
21943;SDS011;11136;48.778;9.126;2023-11-19T02:25:33;0.75;;;0.45;;
21943;SDS011;11136;48.778;9.126;2023-11-19T02:28:00;0.43;;;0.40;;
21943;SDS011;11136;48.778;9.126;2023-11-19T02:30:26;0.40;;;0.40;;
21943;SDS011;11136;48.778;9.126;2023-11-19T02:32:53;0.30;;;0.30;;
21943;SDS011;11136;48.778;9.126;2023-11-19T02:35:22;0.65;;;0.50;;
21943;SDS011;11136;48.778;9.126;2023-11-19T02:37:48;1.33;;;0.38;;
21943;SDS011;11136;48.778;9.126;2023-11-19T02:40:13;1.38;;;0.50;;
21943;SDS011;11136;48.778;9.126;2023-11-19T02:42:39;2.00;;;0.30;;
21943;SDS011;11136;48.778;9.126;2023-11-19T02:45:04;0.10;;;0.10;;
21943;SDS011;11136;48.778;9.126;2023-11-19T02:47:32;0.22;;;0.20;;
21943;SDS011;11136;48.778;9.126;2023-11-19T02:49:58;0.20;;;0.20;;
21943;SDS011;11136;48.778;9.126;2023-11-19T02:52:24;0.35;;;0.28;;
21943;SDS011;11136;48.778;9.126;2023-11-19T02:54:50;1.90;;;0.25;;
21943;SDS011;11136;48.778;9.126;2023-11-19T02:57:15;0.32;;;0.32;;
21943;SDS011;11136;48.778;9.126;2023-11-19T02:59:44;0.65;;;0.35;;
21943;SDS011;11136;48.778;9.126;2023-11-19T03:02:09;1.15;;;0.20;;
21943;SDS011;11136;48.778;9.126;2023-11-19T03:04:36;0.20;;;0.20;;
21943;SDS011;11136;48.778;9.126;2023-11-19T03:07:01;0.88;;;0.10;;
21943;SDS011;11136;48.778;9.126;2023-11-19T03:09:27;1.13;;;0.30;;
21943;SDS011;11136;48.778;9.126;2023-11-19T03:11:54;3.30;;;0.30;;
21943;SDS011;11136;48.778;9.126;2023-11-19T03:14:19;0.20;;;0.20;;
21943;SDS011;11136;48.778;9.126;2023-11-19T03:16:45;0.28;;;0.15;;
21943;SDS011;11136;48.778;9.126;2023-11-19T03:19:11;0.20;;;0.20;;
21943;SDS011;11136;48.778;9.126;2023-11-19T03:21:36;0.75;;;0.40;;
21943;SDS011;11136;48.778;9.126;2023-11-19T03:24:02;0.45;;;0.40;;
21943;SDS011;11136;48.778;9.126;2023-11-19T03:26:27;0.80;;;0.20;;
21943;SDS011;11136;48.778;9.126;2023-11-19T03:28:53;1.02;;;0.20;;
21943;SDS011;11136;48.778;9.126;2023-11-19T03:31:19;1.00;;;0.20;;
21943;SDS011;11136;48.778;9.126;2023-11-19T03:33:45;0.20;;;0.20;;
21943;SDS011;11136;48.778;9.126;2023-11-19T03:36:11;1.55;;;0.10;;
21943;SDS011;11136;48.778;9.126;2023-11-19T03:38:37;0.35;;;0.10;;
21943;SDS011;11136;48.778;9.126;2023-11-19T03:41:12;1.73;;;0.17;;
21943;SDS011;11136;48.778;9.126;2023-11-19T03:43:38;0.65;;;0.32;;
21943;SDS011;11136;48.778;9.126;2023-11-19T03:46:05;0.20;;;0.20;;
21943;SDS011;11136;48.778;9.126;2023-11-19T03:48:41;0.80;;;0.10;;
21943;SDS011;11136;48.778;9.126;2023-11-19T03:51:06;0.20;;;0.20;;
21943;SDS011;11136;48.778;9.126;2023-11-19T03:53:31;1.50;;;0.40;;
21943;SDS011;11136;48.778;9.126;2023-11-19T03:55:57;0.10;;;0.10;;
21943;SDS011;11136;48.778;9.126;2023-11-19T03:58:22;0.20;;;0.20;;
21943;SDS011;11136;48.778;9.126;2023-11-19T04:00:47;0.65;;;0.20;;
21943;SDS011;11136;48.778;9.126;2023-11-19T04:03:13;0.45;;;0.10;;
21943;SDS011;11136;48.778;9.126;2023-11-19T04:05:38;0.10;;;0.10;;
21943;SDS011;11136;48.778;9.126;2023-11-19T04:08:04;0.35;;;0.20;;
21943;SDS011;11136;48.778;9.126;2023-11-19T04:10:29;0.30;;;0.13;;
21943;SDS011;11136;48.778;9.126;2023-11-19T04:12:54;0.10;;;0.10;;
21943;SDS011;11136;48.778;9.126;2023-11-19T04:15:20;0.30;;;0.25;;
21943;SDS011;11136;48.778;9.126;2023-11-19T04:17:45;0.15;;;0.15;;
21943;SDS011;11136;48.778;9.126;2023-11-19T04:20:11;0.17;;;0.17;;
21943;SDS011;11136;48.778;9.126;2023-11-19T04:22:38;0.30;;;0.30;;
21943;SDS011;11136;48.778;9.126;2023-11-19T04:25:04;0.32;;;0.13;;
21943;SDS011;11136;48.778;9.126;2023-11-19T04:27:29;0.20;;;0.20;;
21943;SDS011;11136;48.778;9.126;2023-11-19T04:29:55;2.30;;;0.20;;
21943;SDS011;11136;48.778;9.126;2023-11-19T04:32:20;0.57;;;0.30;;
21943;SDS011;11136;48.778;9.126;2023-11-19T04:34:46;0.43;;;0.17;;
21943;SDS011;11136;48.778;9.126;2023-11-19T04:37:11;0.05;;;0.03;;
21943;SDS011;11136;48.778;9.126;2023-11-19T04:39:36;0.90;;;0.47;;
21943;SDS011;11136;48.778;9.126;2023-11-19T04:42:02;0.20;;;0.20;;
21943;SDS011;11136;48.778;9.126;2023-11-19T04:44:29;0.25;;;0.20;;
21943;SDS011;11136;48.778;9.126;2023-11-19T04:46:55;1.85;;;0.20;;
21943;SDS011;11136;48.778;9.126;2023-11-19T04:49:20;0.10;;;0.10;;
21943;SDS011;11136;48.778;9.126;2023-11-19T04:51:45;1.00;;;0.30;;
21943;SDS011;11136;48.778;9.126;2023-11-19T04:54:16;0.30;;;0.20;;
21943;SDS011;11136;48.778;9.126;2023-11-19T04:56:44;0.17;;;0.15;;
21943;SDS011;11136;48.778;9.126;2023-11-19T04:59:10;0.45;;;0.20;;
21943;SDS011;11136;48.778;9.126;2023-11-19T05:01:35;2.17;;;0.20;;
21943;SDS011;11136;48.778;9.126;2023-11-19T05:04:01;0.10;;;0.10;;
21943;SDS011;11136;48.778;9.126;2023-11-19T05:06:27;0.98;;;0.30;;
21943;SDS011;11136;48.778;9.126;2023-11-19T05:08:54;0.60;;;0.20;;
21943;SDS011;11136;48.778;9.126;2023-11-19T05:11:19;0.10;;;0.10;;
21943;SDS011;11136;48.778;9.126;2023-11-19T05:13:45;0.17;;;0.10;;
21943;SDS011;11136;48.778;9.126;2023-11-19T05:16:11;0.20;;;0.20;;
21943;SDS011;11136;48.778;9.126;2023-11-19T05:18:39;0.17;;;0.17;;
21943;SDS011;11136;48.778;9.126;2023-11-19T05:21:05;0.15;;;0.15;;
21943;SDS011;11136;48.778;9.126;2023-11-19T05:23:31;0.10;;;0.10;;
21943;SDS011;11136;48.778;9.126;2023-11-19T05:25:58;0.20;;;0.20;;
21943;SDS011;11136;48.778;9.126;2023-11-19T05:28:23;0.15;;;0.15;;
21943;SDS011;11136;48.778;9.126;2023-11-19T05:30:49;0.10;;;0.10;;
21943;SDS011;11136;48.778;9.126;2023-11-19T05:33:15;0.32;;;0.00;;
21943;SDS011;11136;48.778;9.126;2023-11-19T05:35:40;0.10;;;0.10;;
21943;SDS011;11136;48.778;9.126;2023-11-19T05:38:05;1.48;;;0.10;;
21943;SDS011;11136;48.778;9.126;2023-11-19T05:40:31;0.30;;;0.15;;
21943;SDS011;11136;48.778;9.126;2023-11-19T05:42:56;0.10;;;0.10;;
21943;SDS011;11136;48.778;9.126;2023-11-19T05:45:22;0.38;;;0.38;;
21943;SDS011;11136;48.778;9.126;2023-11-19T05:47:47;2.15;;;0.20;;
21943;SDS011;11136;48.778;9.126;2023-11-19T05:50:12;0.03;;;0.00;;
21943;SDS011;11136;48.778;9.126;2023-11-19T05:52:39;0.22;;;0.10;;
21943;SDS011;11136;48.778;9.126;2023-11-19T05:55:04;0.20;;;0.20;;
21943;SDS011;11136;48.778;9.126;2023-11-19T05:57:34;0.15;;;0.10;;
21943;SDS011;11136;48.778;9.126;2023-11-19T06:00:00;0.10;;;0.10;;
21943;SDS011;11136;48.778;9.126;2023-11-19T06:02:25;0.08;;;0.03;;
21943;SDS011;11136;48.778;9.126;2023-11-19T06:04:52;0.13;;;0.13;;
21943;SDS011;11136;48.778;9.126;2023-11-19T06:07:18;0.17;;;0.17;;
21943;SDS011;11136;48.778;9.126;2023-11-19T06:09:43;0.17;;;0.10;;
21943;SDS011;11136;48.778;9.126;2023-11-19T06:12:09;1.02;;;0.45;;
21943;SDS011;11136;48.778;9.126;2023-11-19T06:14:34;0.20;;;0.10;;
21943;SDS011;11136;48.778;9.126;2023-11-19T06:16:59;0.10;;;0.10;;
21943;SDS011;11136;48.778;9.126;2023-11-19T06:19:25;0.20;;;0.10;;
21943;SDS011;11136;48.778;9.126;2023-11-19T06:21:50;0.13;;;0.13;;
21943;SDS011;11136;48.778;9.126;2023-11-19T06:24:16;4.43;;;0.30;;
21943;SDS011;11136;48.778;9.126;2023-11-19T06:26:41;0.10;;;0.00;;
21943;SDS011;11136;48.778;9.126;2023-11-19T06:29:06;0.13;;;0.13;;
21943;SDS011;11136;48.778;9.126;2023-11-19T06:31:32;0.35;;;0.17;;
21943;SDS011;11136;48.778;9.126;2023-11-19T06:33:58;0.30;;;0.30;;
21943;SDS011;11136;48.778;9.126;2023-11-19T06:36:24;0.20;;;0.15;;
21943;SDS011;11136;48.778;9.126;2023-11-19T06:38:49;1.45;;;0.20;;
21943;SDS011;11136;48.778;9.126;2023-11-19T06:41:14;0.30;;;0.10;;
21943;SDS011;11136;48.778;9.126;2023-11-19T06:43:40;0.38;;;0.20;;
21943;SDS011;11136;48.778;9.126;2023-11-19T06:46:05;0.52;;;0.20;;
21943;SDS011;11136;48.778;9.126;2023-11-19T06:48:34;0.13;;;0.10;;
21943;SDS011;11136;48.778;9.126;2023-11-19T06:50:59;0.22;;;0.20;;
21943;SDS011;11136;48.778;9.126;2023-11-19T06:53:25;0.35;;;0.25;;
21943;SDS011;11136;48.778;9.126;2023-11-19T06:55:52;1.55;;;0.10;;
21943;SDS011;11136;48.778;9.126;2023-11-19T06:58:18;0.32;;;0.20;;
21943;SDS011;11136;48.778;9.126;2023-11-19T07:00:43;0.17;;;0.10;;
21943;SDS011;11136;48.778;9.126;2023-11-19T07:03:10;0.20;;;0.20;;
21943;SDS011;11136;48.778;9.126;2023-11-19T07:05:36;0.30;;;0.28;;
21943;SDS011;11136;48.778;9.126;2023-11-19T07:08:03;0.22;;;0.22;;
21943;SDS011;11136;48.778;9.126;2023-11-19T07:10:32;1.00;;;0.20;;
21943;SDS011;11136;48.778;9.126;2023-11-19T07:12:57;2.30;;;0.20;;
21943;SDS011;11136;48.778;9.126;2023-11-19T07:15:22;0.10;;;0.10;;
21943;SDS011;11136;48.778;9.126;2023-11-19T07:17:48;0.30;;;0.20;;
21943;SDS011;11136;48.778;9.126;2023-11-19T07:20:13;0.10;;;0.10;;
21943;SDS011;11136;48.778;9.126;2023-11-19T07:22:42;0.43;;;0.40;;
21943;SDS011;11136;48.778;9.126;2023-11-19T07:25:10;0.20;;;0.20;;
21943;SDS011;11136;48.778;9.126;2023-11-19T07:27:37;1.00;;;0.10;;
21943;SDS011;11136;48.778;9.126;2023-11-19T07:30:03;0.40;;;0.38;;
21943;SDS011;11136;48.778;9.126;2023-11-19T07:32:29;0.00;;;0.00;;
21943;SDS011;11136;48.778;9.126;2023-11-19T07:34:55;0.60;;;0.20;;
21943;SDS011;11136;48.778;9.126;2023-11-19T07:37:21;1.45;;;1.35;;
21943;SDS011;11136;48.778;9.126;2023-11-19T07:39:47;0.32;;;0.30;;
21943;SDS011;11136;48.778;9.126;2023-11-19T07:42:12;0.30;;;0.30;;
21943;SDS011;11136;48.778;9.126;2023-11-19T07:44:38;0.20;;;0.20;;
21943;SDS011;11136;48.778;9.126;2023-11-19T07:47:03;0.10;;;0.10;;
21943;SDS011;11136;48.778;9.126;2023-11-19T07:49:28;8.85;;;0.40;;
21943;SDS011;11136;48.778;9.126;2023-11-19T07:51:55;1.35;;;0.20;;
21943;SDS011;11136;48.778;9.126;2023-11-19T07:54:21;0.57;;;0.30;;
21943;SDS011;11136;48.778;9.126;2023-11-19T07:56:46;0.20;;;0.20;;
21943;SDS011;11136;48.778;9.126;2023-11-19T07:59:11;0.25;;;0.20;;
21943;SDS011;11136;48.778;9.126;2023-11-19T08:01:37;0.20;;;0.20;;
21943;SDS011;11136;48.778;9.126;2023-11-19T08:04:02;0.10;;;0.10;;
21943;SDS011;11136;48.778;9.126;2023-11-19T08:06:28;1.23;;;0.20;;
21943;SDS011;11136;48.778;9.126;2023-11-19T08:08:53;0.70;;;0.10;;
21943;SDS011;11136;48.778;9.126;2023-11-19T08:11:18;0.35;;;0.28;;
21943;SDS011;11136;48.778;9.126;2023-11-19T08:13:44;0.10;;;0.10;;
21943;SDS011;11136;48.778;9.126;2023-11-19T08:16:10;0.65;;;0.25;;
21943;SDS011;11136;48.778;9.126;2023-11-19T08:18:36;0.85;;;0.30;;
21943;SDS011;11136;48.778;9.126;2023-11-19T08:21:02;0.40;;;0.20;;
21943;SDS011;11136;48.778;9.126;2023-11-19T08:23:29;0.20;;;0.20;;
21943;SDS011;11136;48.778;9.126;2023-11-19T08:25:55;0.28;;;0.25;;
21943;SDS011;11136;48.778;9.126;2023-11-19T08:28:20;0.20;;;0.20;;
21943;SDS011;11136;48.778;9.126;2023-11-19T08:30:46;2.72;;;0.38;;
21943;SDS011;11136;48.778;9.126;2023-11-19T08:33:11;0.20;;;0.20;;
21943;SDS011;11136;48.778;9.126;2023-11-19T08:35:36;0.30;;;0.17;;
21943;SDS011;11136;48.778;9.126;2023-11-19T08:38:02;0.55;;;0.30;;
21943;SDS011;11136;48.778;9.126;2023-11-19T08:40:27;1.67;;;0.30;;
21943;SDS011;11136;48.778;9.126;2023-11-19T08:42:53;1.60;;;0.40;;
21943;SDS011;11136;48.778;9.126;2023-11-19T08:45:18;0.63;;;0.30;;
21943;SDS011;11136;48.778;9.126;2023-11-19T08:47:44;1.75;;;0.30;;
21943;SDS011;11136;48.778;9.126;2023-11-19T08:50:10;0.93;;;0.40;;
21943;SDS011;11136;48.778;9.126;2023-11-19T08:52:35;0.20;;;0.20;;
21943;SDS011;11136;48.778;9.126;2023-11-19T08:55:01;0.22;;;0.22;;
21943;SDS011;11136;48.778;9.126;2023-11-19T08:57:27;1.48;;;0.32;;
21943;SDS011;11136;48.778;9.126;2023-11-19T08:59:52;0.20;;;0.20;;
21943;SDS011;11136;48.778;9.126;2023-11-19T09:02:17;3.65;;;0.80;;
21943;SDS011;11136;48.778;9.126;2023-11-19T09:04:43;0.35;;;0.35;;
21943;SDS011;11136;48.778;9.126;2023-11-19T09:07:08;0.25;;;0.25;;
21943;SDS011;11136;48.778;9.126;2023-11-19T09:09:37;0.77;;;0.30;;
21943;SDS011;11136;48.778;9.126;2023-11-19T09:12:03;5.28;;;0.30;;
21943;SDS011;11136;48.778;9.126;2023-11-19T09:14:29;1.90;;;0.40;;
21943;SDS011;11136;48.778;9.126;2023-11-19T09:16:55;1.05;;;0.40;;
21943;SDS011;11136;48.778;9.126;2023-11-19T09:19:21;2.50;;;0.50;;
21943;SDS011;11136;48.778;9.126;2023-11-19T09:21:46;0.80;;;0.40;;
21943;SDS011;11136;48.778;9.126;2023-11-19T09:24:14;0.45;;;0.45;;
21943;SDS011;11136;48.778;9.126;2023-11-19T09:26:39;0.45;;;0.35;;
21943;SDS011;11136;48.778;9.126;2023-11-19T09:29:06;1.00;;;0.30;;
21943;SDS011;11136;48.778;9.126;2023-11-19T09:31:34;0.38;;;0.35;;
21943;SDS011;11136;48.778;9.126;2023-11-19T09:34:00;1.67;;;0.50;;
21943;SDS011;11136;48.778;9.126;2023-11-19T09:36:26;0.40;;;0.40;;
21943;SDS011;11136;48.778;9.126;2023-11-19T09:38:51;0.38;;;0.38;;
21943;SDS011;11136;48.778;9.126;2023-11-19T09:41:16;0.55;;;0.52;;
21943;SDS011;11136;48.778;9.126;2023-11-19T09:43:44;0.68;;;0.60;;
21943;SDS011;11136;48.778;9.126;2023-11-19T09:46:10;1.20;;;0.60;;
21943;SDS011;11136;48.778;9.126;2023-11-19T09:48:39;0.80;;;0.40;;
21943;SDS011;11136;48.778;9.126;2023-11-19T09:51:06;0.32;;;0.32;;
21943;SDS011;11136;48.778;9.126;2023-11-19T09:53:32;2.88;;;0.43;;
21943;SDS011;11136;48.778;9.126;2023-11-19T09:56:05;3.28;;;0.50;;
21943;SDS011;11136;48.778;9.126;2023-11-19T09:58:37;0.60;;;0.50;;
21943;SDS011;11136;48.778;9.126;2023-11-19T10:03:32;0.85;;;0.50;;
21943;SDS011;11136;48.778;9.126;2023-11-19T10:06:03;3.38;;;0.70;;
21943;SDS011;11136;48.778;9.126;2023-11-19T10:08:29;1.02;;;0.55;;
21943;SDS011;11136;48.778;9.126;2023-11-19T10:10:55;1.55;;;0.30;;
21943;SDS011;11136;48.778;9.126;2023-11-19T10:13:22;0.70;;;0.52;;
21943;SDS011;11136;48.778;9.126;2023-11-19T10:15:51;1.63;;;0.52;;
21943;SDS011;11136;48.778;9.126;2023-11-19T10:18:17;1.58;;;0.70;;
21943;SDS011;11136;48.778;9.126;2023-11-19T10:20:43;0.75;;;0.65;;
21943;SDS011;11136;48.778;9.126;2023-11-19T10:23:09;0.70;;;0.50;;
21943;SDS011;11136;48.778;9.126;2023-11-19T10:25:35;1.25;;;0.70;;
21943;SDS011;11136;48.778;9.126;2023-11-19T10:28:01;1.17;;;0.57;;
21943;SDS011;11136;48.778;9.126;2023-11-19T10:30:28;0.73;;;0.63;;
21943;SDS011;11136;48.778;9.126;2023-11-19T10:33:08;0.55;;;0.40;;
21943;SDS011;11136;48.778;9.126;2023-11-19T10:35:35;1.10;;;0.52;;
21943;SDS011;11136;48.778;9.126;2023-11-19T10:38:19;0.77;;;0.35;;
21943;SDS011;11136;48.778;9.126;2023-11-19T10:40:46;0.35;;;0.20;;
21943;SDS011;11136;48.778;9.126;2023-11-19T10:43:12;1.65;;;0.75;;
21943;SDS011;11136;48.778;9.126;2023-11-19T10:45:37;0.50;;;0.40;;
21943;SDS011;11136;48.778;9.126;2023-11-19T10:48:04;0.88;;;0.30;;
21943;SDS011;11136;48.778;9.126;2023-11-19T10:50:32;1.08;;;0.30;;
21943;SDS011;11136;48.778;9.126;2023-11-19T10:53:05;0.90;;;0.40;;
21943;SDS011;11136;48.778;9.126;2023-11-19T10:55:31;2.45;;;0.45;;
21943;SDS011;11136;48.778;9.126;2023-11-19T10:58:03;1.60;;;0.55;;
21943;SDS011;11136;48.778;9.126;2023-11-19T11:00:48;0.88;;;0.25;;
21943;SDS011;11136;48.778;9.126;2023-11-19T11:03:18;2.75;;;0.57;;
21943;SDS011;11136;48.778;9.126;2023-11-19T11:05:47;0.38;;;0.38;;
21943;SDS011;11136;48.778;9.126;2023-11-19T11:08:14;1.25;;;0.40;;
21943;SDS011;11136;48.778;9.126;2023-11-19T11:10:42;0.80;;;0.38;;
21943;SDS011;11136;48.778;9.126;2023-11-19T11:13:10;0.63;;;0.28;;
21943;SDS011;11136;48.778;9.126;2023-11-19T11:15:38;5.22;;;0.85;;
21943;SDS011;11136;48.778;9.126;2023-11-19T11:18:06;1.77;;;0.90;;
21943;SDS011;11136;48.778;9.126;2023-11-19T11:20:34;1.67;;;0.55;;
21943;SDS011;11136;48.778;9.126;2023-11-19T11:28:39;2.47;;;0.93;;
21943;SDS011;11136;48.778;9.126;2023-11-19T11:31:20;1.67;;;0.70;;
21943;SDS011;11136;48.778;9.126;2023-11-19T11:33:59;0.55;;;0.55;;
21943;SDS011;11136;48.778;9.126;2023-11-19T11:36:26;2.65;;;0.40;;
21943;SDS011;11136;48.778;9.126;2023-11-19T11:38:52;0.90;;;0.70;;
21943;SDS011;11136;48.778;9.126;2023-11-19T11:41:22;0.47;;;0.35;;
21943;SDS011;11136;48.778;9.126;2023-11-19T11:43:49;1.17;;;0.60;;
21943;SDS011;11136;48.778;9.126;2023-11-19T11:49:06;2.60;;;0.40;;
21943;SDS011;11136;48.778;9.126;2023-11-19T11:57:00;2.13;;;0.60;;
21943;SDS011;11136;48.778;9.126;2023-11-19T12:02:14;1.33;;;0.50;;
21943;SDS011;11136;48.778;9.126;2023-11-19T12:04:41;3.42;;;0.60;;
21943;SDS011;11136;48.778;9.126;2023-11-19T12:12:33;1.13;;;0.45;;
21943;SDS011;11136;48.778;9.126;2023-11-19T12:19:59;1.42;;;0.75;;
21943;SDS011;11136;48.778;9.126;2023-11-19T12:22:40;1.38;;;0.43;;
21943;SDS011;11136;48.778;9.126;2023-11-19T12:25:07;0.85;;;0.85;;
21943;SDS011;11136;48.778;9.126;2023-11-19T12:27:37;0.55;;;0.30;;
21943;SDS011;11136;48.778;9.126;2023-11-19T12:30:05;0.70;;;0.60;;
21943;SDS011;11136;48.778;9.126;2023-11-19T12:32:40;1.02;;;0.75;;
21943;SDS011;11136;48.778;9.126;2023-11-19T12:35:07;1.83;;;0.30;;
21943;SDS011;11136;48.778;9.126;2023-11-19T12:37:40;1.60;;;0.60;;
21943;SDS011;11136;48.778;9.126;2023-11-19T12:40:19;2.08;;;0.60;;
21943;SDS011;11136;48.778;9.126;2023-11-19T12:42:46;1.52;;;0.50;;
21943;SDS011;11136;48.778;9.126;2023-11-19T12:45:12;2.45;;;0.50;;
21943;SDS011;11136;48.778;9.126;2023-11-19T12:47:39;1.02;;;0.35;;
21943;SDS011;11136;48.778;9.126;2023-11-19T12:50:05;2.80;;;0.75;;
21943;SDS011;11136;48.778;9.126;2023-11-19T12:52:32;0.98;;;0.60;;
21943;SDS011;11136;48.778;9.126;2023-11-19T12:54:58;1.65;;;0.50;;
21943;SDS011;11136;48.778;9.126;2023-11-19T12:57:42;1.15;;;0.50;;
21943;SDS011;11136;48.778;9.126;2023-11-19T13:00:08;1.95;;;0.85;;
21943;SDS011;11136;48.778;9.126;2023-11-19T13:02:47;3.85;;;0.70;;
21943;SDS011;11136;48.778;9.126;2023-11-19T13:07:57;0.82;;;0.50;;
21943;SDS011;11136;48.778;9.126;2023-11-19T13:10:30;3.75;;;0.45;;
21943;SDS011;11136;48.778;9.126;2023-11-19T13:13:14;0.75;;;0.40;;
21943;SDS011;11136;48.778;9.126;2023-11-19T13:15:39;1.17;;;0.63;;
21943;SDS011;11136;48.778;9.126;2023-11-19T13:18:05;1.63;;;0.50;;
21943;SDS011;11136;48.778;9.126;2023-11-19T13:20:32;1.67;;;0.50;;
21943;SDS011;11136;48.778;9.126;2023-11-19T13:22:58;2.03;;;0.70;;
21943;SDS011;11136;48.778;9.126;2023-11-19T13:25:25;1.80;;;0.65;;
21943;SDS011;11136;48.778;9.126;2023-11-19T13:27:51;0.60;;;0.30;;
21943;SDS011;11136;48.778;9.126;2023-11-19T13:30:16;9.20;;;0.55;;
21943;SDS011;11136;48.778;9.126;2023-11-19T13:32:42;0.68;;;0.40;;
21943;SDS011;11136;48.778;9.126;2023-11-19T13:35:09;1.25;;;0.47;;
21943;SDS011;11136;48.778;9.126;2023-11-19T13:37:34;2.95;;;1.60;;
21943;SDS011;11136;48.778;9.126;2023-11-19T13:40:00;1.00;;;0.55;;
21943;SDS011;11136;48.778;9.126;2023-11-19T13:42:26;0.20;;;0.15;;
21943;SDS011;11136;48.778;9.126;2023-11-19T13:44:52;0.95;;;0.50;;
21943;SDS011;11136;48.778;9.126;2023-11-19T13:47:17;0.98;;;0.60;;
21943;SDS011;11136;48.778;9.126;2023-11-19T13:49:44;0.60;;;0.40;;
21943;SDS011;11136;48.778;9.126;2023-11-19T13:52:09;3.65;;;0.68;;
21943;SDS011;11136;48.778;9.126;2023-11-19T13:54:36;1.48;;;0.40;;
21943;SDS011;11136;48.778;9.126;2023-11-19T13:57:02;0.70;;;0.50;;
21943;SDS011;11136;48.778;9.126;2023-11-19T13:59:29;1.48;;;0.65;;
21943;SDS011;11136;48.778;9.126;2023-11-19T14:01:56;0.52;;;0.50;;
21943;SDS011;11136;48.778;9.126;2023-11-19T14:04:21;1.17;;;0.40;;
21943;SDS011;11136;48.778;9.126;2023-11-19T14:06:46;2.13;;;0.50;;
21943;SDS011;11136;48.778;9.126;2023-11-19T14:09:12;1.48;;;0.68;;
21943;SDS011;11136;48.778;9.126;2023-11-19T14:11:37;1.65;;;0.35;;
21943;SDS011;11136;48.778;9.126;2023-11-19T14:14:03;1.08;;;0.60;;
21943;SDS011;11136;48.778;9.126;2023-11-19T14:16:28;2.90;;;0.65;;
21943;SDS011;11136;48.778;9.126;2023-11-19T14:18:54;1.95;;;0.80;;
21943;SDS011;11136;48.778;9.126;2023-11-19T14:21:20;1.95;;;0.40;;
21943;SDS011;11136;48.778;9.126;2023-11-19T14:23:45;0.35;;;0.35;;
21943;SDS011;11136;48.778;9.126;2023-11-19T14:26:10;1.38;;;0.68;;
21943;SDS011;11136;48.778;9.126;2023-11-19T14:28:36;1.55;;;0.55;;
21943;SDS011;11136;48.778;9.126;2023-11-19T14:31:01;1.30;;;0.40;;
21943;SDS011;11136;48.778;9.126;2023-11-19T14:33:26;1.90;;;0.50;;
21943;SDS011;11136;48.778;9.126;2023-11-19T14:35:52;1.17;;;0.60;;
21943;SDS011;11136;48.778;9.126;2023-11-19T14:38:17;0.65;;;0.50;;
21943;SDS011;11136;48.778;9.126;2023-11-19T14:40:43;2.63;;;0.60;;
21943;SDS011;11136;48.778;9.126;2023-11-19T14:43:08;1.33;;;0.60;;
21943;SDS011;11136;48.778;9.126;2023-11-19T14:45:37;1.90;;;0.50;;
21943;SDS011;11136;48.778;9.126;2023-11-19T14:48:03;1.25;;;0.52;;
21943;SDS011;11136;48.778;9.126;2023-11-19T14:50:28;2.53;;;0.55;;
21943;SDS011;11136;48.778;9.126;2023-11-19T14:52:54;1.52;;;0.82;;
21943;SDS011;11136;48.778;9.126;2023-11-19T14:55:19;0.52;;;0.40;;
21943;SDS011;11136;48.778;9.126;2023-11-19T14:57:44;1.45;;;0.60;;
21943;SDS011;11136;48.778;9.126;2023-11-19T15:00:10;1.40;;;0.60;;
21943;SDS011;11136;48.778;9.126;2023-11-19T15:02:39;2.05;;;0.70;;
21943;SDS011;11136;48.778;9.126;2023-11-19T15:05:06;1.05;;;0.70;;
21943;SDS011;11136;48.778;9.126;2023-11-19T15:07:32;2.05;;;0.57;;
21943;SDS011;11136;48.778;9.126;2023-11-19T15:09:58;0.70;;;0.40;;
21943;SDS011;11136;48.778;9.126;2023-11-19T15:12:24;1.30;;;0.55;;
21943;SDS011;11136;48.778;9.126;2023-11-19T15:14:50;2.28;;;0.40;;
21943;SDS011;11136;48.778;9.126;2023-11-19T15:17:15;3.60;;;0.50;;